createdAt,value
2023-04-05T00:00:22.070Z,4.08
2023-04-05T00:05:29.648Z,4.08
2023-04-05T00:10:31.579Z,4.01
2023-04-05T00:15:33.155Z,4.02
2023-04-05T00:20:37.398Z,3.99
2023-04-05T00:25:38.829Z,3.94
2023-04-05T00:30:40.729Z,3.92
2023-04-05T00:35:42.440Z,4.00
2023-04-05T00:40:43.987Z,4.00
2023-04-05T00:45:46.646Z,4.06
2023-04-05T00:50:49.945Z,4.12
2023-04-05T00:55:54.357Z,4.08
2023-04-05T01:00:59.430Z,4.07
2023-04-05T01:06:08.240Z,4.10
2023-04-05T01:11:13.334Z,4.12
2023-04-05T01:16:15.521Z,4.15
2023-04-05T01:21:46.018Z,4.19
2023-04-05T01:26:54.591Z,4.19
2023-04-05T01:32:21.401Z,4.12
2023-04-05T01:37:27.192Z,4.05
2023-04-05T01:42:28.655Z,4.02
2023-04-05T01:47:30.221Z,3.98
2023-04-05T01:52:32.005Z,3.97
2023-04-05T01:57:33.423Z,3.92
2023-04-05T02:02:34.967Z,3.83
2023-04-05T02:07:36.735Z,3.83
2023-04-05T02:12:38.218Z,3.79
2023-04-05T02:17:45.512Z,3.77
2023-04-05T02:22:47.108Z,3.77
2023-04-05T02:27:49.044Z,3.70
2023-04-05T02:32:50.515Z,3.65
2023-04-05T02:37:52.141Z,3.67
2023-04-05T02:42:53.636Z,3.54
2023-04-05T02:47:55.675Z,3.41
2023-04-05T02:52:58.181Z,3.37
2023-04-05T02:58:01.832Z,3.36
2023-04-05T03:03:10.504Z,3.32
2023-04-05T03:08:23.501Z,3.30
2023-04-05T03:13:34.662Z,3.26
2023-04-05T03:18:38.769Z,3.20
2023-04-05T03:23:43.099Z,3.11
2023-04-05T03:28:46.068Z,3.08
2023-04-05T03:33:48.337Z,3.09
2023-04-05T03:38:51.688Z,3.05
2023-04-05T03:43:55.735Z,3.04
2023-04-05T03:48:59.590Z,3.01
2023-04-05T03:54:01.079Z,2.97
2023-04-05T03:59:06.955Z,2.93
2023-04-05T04:04:08.647Z,2.89
2023-04-05T04:09:11.020Z,2.85
2023-04-05T04:14:12.752Z,2.84
2023-04-05T04:19:31.257Z,2.80
2023-04-05T04:24:53.438Z,2.76
2023-04-05T04:30:17.403Z,2.70
2023-04-05T04:35:40.544Z,2.72
2023-04-05T04:41:06.025Z,2.73
2023-04-05T04:46:30.708Z,2.73
2023-04-05T04:51:39.281Z,2.70
2023-04-05T04:56:40.668Z,2.68
2023-04-05T05:01:45.159Z,2.68
2023-04-05T05:06:46.570Z,2.66
2023-04-05T05:11:47.996Z,2.60
2023-04-05T05:16:49.517Z,2.53
2023-04-05T05:21:53.802Z,2.44
2023-04-05T05:26:55.418Z,2.40
2023-04-05T05:31:57.088Z,2.33
2023-04-05T05:36:58.596Z,2.29
2023-04-05T05:42:00.061Z,2.26
2023-04-05T05:47:01.500Z,2.26
2023-04-05T05:52:03.766Z,2.33
2023-04-05T05:57:05.431Z,2.41
2023-04-05T06:02:07.784Z,2.49
2023-04-05T06:07:09.259Z,2.56
2023-04-05T06:12:10.793Z,2.63
2023-04-05T06:17:12.327Z,2.68
2023-04-05T06:22:13.784Z,2.80
2023-04-05T06:27:15.213Z,2.94
2023-04-05T06:32:16.677Z,3.01
2023-04-05T06:37:18.095Z,3.04
2023-04-05T06:42:19.512Z,3.11
2023-04-05T06:47:27.976Z,3.17
2023-04-05T06:52:29.855Z,3.29
2023-04-05T06:57:31.450Z,3.39
2023-04-05T07:02:34.096Z,3.44
2023-04-05T07:07:42.465Z,3.55
2023-04-05T07:13:01.044Z,3.68
2023-04-05T07:18:02.532Z,3.78
2023-04-05T07:23:05.768Z,3.84
2023-04-05T07:28:07.195Z,3.90
2023-04-05T07:33:08.784Z,4.01
2023-04-05T07:38:11.231Z,4.06
2023-04-05T07:43:13.449Z,4.16
2023-04-05T07:48:14.901Z,4.30
2023-04-05T07:53:16.858Z,4.45
2023-04-05T07:58:18.303Z,4.56
2023-04-05T08:03:19.776Z,4.63
2023-04-05T08:08:21.762Z,4.81
2023-04-05T08:13:23.359Z,5.01
2023-04-05T08:18:24.823Z,5.19
2023-04-05T08:23:27.043Z,5.36
2023-04-05T08:28:28.541Z,5.45
2023-04-05T08:33:31.116Z,5.59
2023-04-05T08:38:32.895Z,5.81
2023-04-05T08:43:57.414Z,6.04
2023-04-05T08:48:59.625Z,6.30
2023-04-05T08:54:01.921Z,6.54
2023-04-05T08:59:08.477Z,6.77
2023-04-05T09:04:16.553Z,6.87
2023-04-05T09:09:20.278Z,6.77
2023-04-05T09:14:22.007Z,6.79
2023-04-05T09:19:23.646Z,6.94
2023-04-05T09:24:41.444Z,7.11
2023-04-05T09:29:45.526Z,7.15
2023-04-05T09:34:47.886Z,7.18
2023-04-05T09:40:05.036Z,7.19
2023-04-05T09:45:07.162Z,7.31
2023-04-05T09:50:13.914Z,7.58
2023-04-05T09:55:27.019Z,7.87
2023-04-05T10:00:29.075Z,8.17
2023-04-05T10:05:32.362Z,8.25
2023-04-05T10:10:43.709Z,8.23
2023-04-05T10:15:49.266Z,8.04
2023-04-05T10:20:52.176Z,8.10
2023-04-05T10:25:53.901Z,8.10
2023-04-05T10:31:10.002Z,8.01
2023-04-05T10:36:11.435Z,8.07
2023-04-05T10:41:14.692Z,8.08
2023-04-05T10:46:20.929Z,8.10
2023-04-05T10:51:26.778Z,7.98
2023-04-05T10:56:28.904Z,7.94
2023-04-05T11:01:31.168Z,8.18
2023-04-05T11:06:33.423Z,8.54
2023-04-05T11:11:48.626Z,8.54
2023-04-05T11:16:56.728Z,8.66
2023-04-05T11:22:01.809Z,8.85
2023-04-05T11:27:09.670Z,9.00
2023-04-05T11:32:14.159Z,9.14
2023-04-05T11:37:15.620Z,9.24
2023-04-05T11:42:18.294Z,9.17
2023-04-05T11:47:23.570Z,9.35
2023-04-05T11:52:25.191Z,9.50
2023-04-05T11:57:26.837Z,9.69
2023-04-05T12:02:28.304Z,10.10
2023-04-05T12:07:32.795Z,10.39
2023-04-05T12:12:39.460Z,10.51
2023-04-05T12:17:49.578Z,10.25
2023-04-05T12:22:56.200Z,9.70
2023-04-05T12:28:04.402Z,9.29
2023-04-05T12:33:09.715Z,9.04
2023-04-05T12:38:15.731Z,8.96
2023-04-05T12:43:19.899Z,8.88
2023-04-05T12:48:23.725Z,9.00
2023-04-05T12:53:28.588Z,9.22
2023-04-05T12:58:36.184Z,9.51
2023-04-05T13:03:37.669Z,9.68
2023-04-05T13:08:39.186Z,9.69
2023-04-05T13:13:40.937Z,9.68
2023-04-05T13:18:42.556Z,9.61
2023-04-05T13:23:44.062Z,9.46
2023-04-05T13:28:45.578Z,9.09
2023-04-05T13:33:47.022Z,8.38
2023-04-05T13:38:48.408Z,7.91
2023-04-05T13:43:50.643Z,7.67
2023-04-05T13:48:52.166Z,7.87
2023-04-05T13:53:53.585Z,8.13
2023-04-05T13:58:55.211Z,8.26
2023-04-05T14:03:56.881Z,8.30
2023-04-05T14:08:58.339Z,8.27
2023-04-05T14:14:00.151Z,8.37
2023-04-05T14:19:01.633Z,8.49
2023-04-05T14:24:03.117Z,8.55
2023-04-05T14:29:04.845Z,8.73
2023-04-05T14:34:06.320Z,8.91
2023-04-05T14:39:08.008Z,9.00
2023-04-05T14:44:09.554Z,9.23
2023-04-05T14:49:11.249Z,9.27
2023-04-05T14:54:12.838Z,9.27
2023-04-05T14:59:14.401Z,9.46
2023-04-05T15:04:15.930Z,9.48
2023-04-05T15:09:17.742Z,9.57
2023-04-05T15:14:30.731Z,10.37
2023-04-05T15:19:35.336Z,11.53
2023-04-05T15:24:38.071Z,12.98
2023-04-05T15:29:39.463Z,13.62
2023-04-05T15:34:41.148Z,13.02
2023-04-05T15:39:42.618Z,12.25
2023-04-05T15:44:44.323Z,11.85
2023-04-05T15:49:45.932Z,11.19
2023-04-05T15:54:47.666Z,10.69
2023-04-05T15:59:49.754Z,10.26
2023-04-05T16:04:51.457Z,9.67
2023-04-05T16:09:53.026Z,9.13
2023-04-05T16:14:54.488Z,8.77
2023-04-05T16:19:57.184Z,8.46
2023-04-05T16:24:58.840Z,8.24
2023-04-05T16:30:00.868Z,8.10
2023-04-05T16:35:02.403Z,7.97
2023-04-05T16:40:04.347Z,7.89
2023-04-05T16:45:06.523Z,7.80
2023-04-05T16:50:08.464Z,7.66
2023-04-05T16:55:10.269Z,7.43
2023-04-05T17:00:13.357Z,7.35
2023-04-05T17:05:15.609Z,7.29
2023-04-05T17:10:17.168Z,7.18
2023-04-05T17:15:18.710Z,7.11
2023-04-05T17:20:20.330Z,7.00
2023-04-05T17:25:21.831Z,6.87
2023-04-05T17:30:23.309Z,6.74
2023-04-05T17:35:24.828Z,6.62
2023-04-05T17:40:26.386Z,6.45
2023-04-05T17:45:28.550Z,6.28
2023-04-05T17:50:30.208Z,6.13
2023-04-05T17:55:34.625Z,5.95
2023-04-05T18:00:36.124Z,5.81
2023-04-05T18:05:37.600Z,5.76
2023-04-05T18:10:39.146Z,5.74
2023-04-05T18:15:41.246Z,5.73
2023-04-05T18:20:43.152Z,5.73
2023-04-05T18:25:45.318Z,5.76
2023-04-05T18:30:47.030Z,5.77
2023-04-05T18:35:50.339Z,5.81
2023-04-05T18:41:00.792Z,5.84
2023-04-05T18:46:02.305Z,5.85
2023-04-05T18:51:03.911Z,5.84
2023-04-05T18:56:05.567Z,5.82
2023-04-05T19:01:09.216Z,5.74
2023-04-05T19:06:10.855Z,5.74
2023-04-05T19:11:13.911Z,5.76
2023-04-05T19:16:17.396Z,5.70
2023-04-05T19:21:19.091Z,5.65
2023-04-05T19:26:22.436Z,5.66
2023-04-05T19:31:24.329Z,5.69
2023-04-05T19:36:27.222Z,5.69
2023-04-05T19:41:32.439Z,5.72
2023-04-05T19:46:34.058Z,5.73
2023-04-05T19:51:36.110Z,5.72
2023-04-05T19:56:38.977Z,5.69
2023-04-05T20:01:41.531Z,5.66
2023-04-05T20:06:45.001Z,5.66
2023-04-05T20:11:55.856Z,5.65
2023-04-05T20:16:58.392Z,5.61
2023-04-05T20:22:01.237Z,5.60
2023-04-05T20:27:03.957Z,5.59
2023-04-05T20:32:06.253Z,5.59
2023-04-05T20:37:10.994Z,5.56
2023-04-05T20:42:12.649Z,5.54
2023-04-05T20:47:14.215Z,5.52
2023-04-05T20:52:15.742Z,5.47
2023-04-05T20:57:17.358Z,5.41
2023-04-05T21:02:18.870Z,5.37
2023-04-05T21:07:20.618Z,5.33
2023-04-05T21:12:22.106Z,5.27
2023-04-05T21:17:23.601Z,5.19
2023-04-05T21:22:25.235Z,5.13
2023-04-05T21:27:27.362Z,5.06
2023-04-05T21:32:28.839Z,5.00
2023-04-05T21:37:30.324Z,4.92
2023-04-05T21:42:32.837Z,4.83
2023-04-05T21:47:34.391Z,4.73
2023-04-05T21:52:36.573Z,4.65
2023-04-05T21:57:38.294Z,4.52
